Time;durP1;ratioP1;P1;durP2;ratioP2;P2;SDS_P1;SDS_P2;PMS_P1;PMS_P2;Temp;Humidity;BMP_temperature;BMP_pressure;BME280_temperature;BME280_humidity;BME280_pressure;Samples;Min_cycle;Max_cycle;Signal;HPM_P1;HPM_P2
2022/09/30 00:01:32;;;;;;;21.42;18.95;;;;;;;6.57;97.22;100727.75;5036467;28;20035;-65
2022/09/30 00:03:58;;;;;;;21.85;18.88;;;;;;;6.53;96.87;100732.75;5031166;28;20016;-65
2022/09/30 00:06:25;;;;;;;20.45;18.27;;;;;;;6.45;96.39;100739.28;5047898;28;20063;-65
2022/09/30 00:08:52;;;;;;;20.37;18.27;;;;;;;6.41;96.39;100737.16;5042883;28;20126;-65
2022/09/30 00:11:20;;;;;;;20.05;17.95;;;;;;;6.37;96.52;100738.59;5048556;28;20040;-65
2022/09/30 00:13:48;;;;;;;20.42;18.33;;;;;;;6.37;97.07;100733.16;5048639;28;20041;-65
2022/09/30 00:16:15;;;;;;;23.83;18.37;;;;;;;6.38;96.66;100741.13;5036596;28;20472;-64
2022/09/30 00:18:41;;;;;;;20.73;17.85;;;;;;;6.38;96.57;100738.38;5041551;28;20029;-65
2022/09/30 00:21:08;;;;;;;19.92;17.70;;;;;;;6.37;96.28;100734.00;5045323;28;20116;-65
2022/09/30 00:23:36;;;;;;;20.85;18.65;;;;;;;6.34;96.82;100730.84;5035643;28;20079;-65
2022/09/30 00:26:11;;;;;;;20.35;18.13;;;;;;;6.32;96.98;100739.22;5028640;28;20045;-66
2022/09/30 00:28:37;;;;;;;23.85;19.10;;;;;;;6.31;96.87;100734.81;5040735;28;20110;-65
2022/09/30 00:31:05;;;;;;;21.33;19.08;;;;;;;6.28;96.88;100737.09;5045710;28;20036;-65
2022/09/30 00:33:31;;;;;;;40.35;26.65;;;;;;;6.29;97.12;100733.34;5046830;28;20471;-66
2022/09/30 00:35:56;;;;;;;27.08;21.95;;;;;;;6.27;97.14;100740.88;5046703;28;20033;-65
2022/09/30 00:38:22;;;;;;;27.92;23.20;;;;;;;6.28;97.58;100737.09;5034674;28;20087;-65
2022/09/30 00:40:48;;;;;;;36.42;25.20;;;;;;;6.29;98.07;100736.94;5028276;28;20038;-65
2022/09/30 00:43:16;;;;;;;38.85;27.48;;;;;;;6.26;97.82;100728.31;5028768;28;20025;-66
2022/09/30 00:45:59;;;;;;;28.80;23.30;;;;;;;6.26;98.21;100728.31;5026295;28;20029;-65
2022/09/30 00:48:34;;;;;;;24.75;21.05;;;;;;;6.20;97.62;100735.41;5037031;28;20353;-65
2022/09/30 00:51:03;;;;;;;24.10;20.55;;;;;;;6.14;97.89;100731.63;5029148;28;20037;-66
2022/09/30 00:53:30;;;;;;;;;;;;;;;6.28;96.85;100732.50;5031854;28;20453;-65
2022/09/30 00:56:31;;;;;;;21.70;19.10;;;;;;;6.16;97.37;100740.44;5028312;28;20610;-65
2022/09/30 00:59:11;;;;;;;20.30;18.10;;;;;;;6.13;97.72;100746.31;5039742;28;20041;-65
2022/09/30 01:01:39;;;;;;;20.23;18.08;;;;;;;6.10;97.44;100749.44;5042611;28;20202;-65
2022/09/30 01:04:11;;;;;;;19.98;17.95;;;;;;;6.09;97.69;100744.19;5046018;28;20127;-65
2022/09/30 01:06:37;;;;;;;22.08;18.88;;;;;;;6.09;97.92;100736.84;5036976;28;20439;-65
2022/09/30 01:09:03;;;;;;;21.40;19.13;;;;;;;6.07;98.16;100741.66;5039417;28;20083;-65
2022/09/30 01:11:28;;;;;;;21.60;19.35;;;;;;;6.04;98.05;100735.78;5048266;28;20128;-65
2022/09/30 01:13:58;;;;;;;20.83;18.60;;;;;;;5.97;98.21;100741.19;5038219;28;20112;-65
2022/09/30 01:16:41;;;;;;;18.83;16.83;;;;;;;5.93;98.36;100737.19;5039358;28;20475;-66
2022/09/30 01:19:38;;;;;;;18.08;16.33;;;;;;;5.88;98.09;100745.97;5027808;28;20037;-66
2022/09/30 01:22:09;;;;;;;18.50;16.42;;;;;;;5.83;97.68;100744.88;5032717;28;20531;-66
2022/09/30 01:24:58;;;;;;;17.88;15.70;;;;;;;5.82;98.18;100735.84;5029096;28;20044;-66
2022/09/30 01:27:42;;;;;;;17.65;15.90;;;;;;;5.82;98.25;100738.56;5047244;28;20051;-66
2022/09/30 01:30:19;;;;;;;18.73;16.10;;;;;;;5.79;98.51;100735.44;5031713;28;20051;-66
2022/09/30 01:33:02;;;;;;;19.23;17.20;;;;;;;5.80;98.91;100746.13;5041202;28;20025;-66
2022/09/30 01:35:59;;;;;;;19.48;16.23;;;;;;;5.80;98.52;100746.13;5046886;28;20029;-66
2022/09/30 01:38:43;;;;;;;18.70;16.67;;;;;;;5.80;98.51;100742.56;5037265;28;20052;-66
2022/09/30 01:41:35;;;;;;;18.48;16.27;;;;;;;5.77;99.03;100745.69;5042612;28;20116;-66
2022/09/30 01:44:22;;;;;;;18.92;16.45;;;;;;;5.76;99.25;100744.84;5046681;28;20040;-66
2022/09/30 01:46:58;;;;;;;18.48;16.17;;;;;;;5.73;98.90;100748.81;5034508;28;20388;-66
2022/09/30 01:50:08;;;;;;;18.92;16.48;;;;;;;5.72;98.55;100749.00;5043001;28;20810;-66
2022/09/30 01:52:40;;;;;;;17.95;16.08;;;;;;;5.67;98.00;100749.59;5005538;28;20048;-66
2022/09/30 01:55:28;;;;;;;21.33;16.77;;;;;;;5.70;98.35;100748.38;5018236;28;20484;-66
2022/09/30 01:58:04;;;;;;;18.50;16.25;;;;;;;5.65;98.58;100745.41;5033534;28;20065;-66
2022/09/30 02:00:33;;;;;;;20.45;17.15;;;;;;;5.64;99.05;100746.47;5029029;28;20033;-66
2022/09/30 02:03:15;;;;;;;17.45;15.57;;;;;;;5.64;98.55;100747.31;5027736;28;20022;-65
2022/09/30 02:06:02;;;;;;;17.65;15.75;;;;;;;5.66;98.30;100744.38;5029226;28;20017;-65
2022/09/30 02:08:40;;;;;;;17.02;15.30;;;;;;;5.62;98.18;100749.38;5026501;28;20230;-66
2022/09/30 02:11:12;;;;;;;17.95;15.93;;;;;;;5.60;97.77;100747.91;5027286;28;20491;-65
2022/09/30 02:13:49;;;;;;;17.73;15.02;;;;;;;5.59;98.13;100752.50;5034925;28;20025;-65
2022/09/30 02:16:38;;;;;;;18.98;16.67;;;;;;;5.55;98.23;100745.78;5046773;28;20021;-65
2022/09/30 02:19:19;;;;;;;20.27;17.13;;;;;;;5.58;98.28;100759.00;5045975;28;20032;-65
2022/09/30 02:21:51;;;;;;;19.85;17.38;;;;;;;5.51;98.42;100760.84;5031756;28;20503;-65
2022/09/30 02:24:21;;;;;;;19.42;17.13;;;;;;;5.48;98.49;100750.34;5041088;28;20041;-65
2022/09/30 02:26:48;;;;;;;18.58;16.63;;;;;;;5.45;99.12;100748.84;5042450;28;20034;-65
2022/09/30 02:29:28;;;;;;;19.33;17.23;;;;;;;5.42;99.07;100745.69;5041891;28;20078;-65
2022/09/30 02:31:57;;;;;;;18.83;16.83;;;;;;;5.37;99.16;100749.03;5044709;28;20095;-65
2022/09/30 02:34:38;;;;;;;19.48;16.85;;;;;;;5.36;99.08;100746.47;5046380;28;20056;-65
2022/09/30 02:37:15;;;;;;;19.90;16.75;;;;;;;5.34;99.19;100740.41;5041432;28;20029;-65
2022/09/30 02:40:04;;;;;;;20.40;15.73;;;;;;;5.31;99.51;100743.50;5045684;28;20033;-66
2022/09/30 02:42:30;;;;;;;18.38;16.35;;;;;;;5.28;99.44;100739.31;5005553;28;20052;-66
2022/09/30 02:45:02;;;;;;;18.50;16.50;;;;;;;5.29;100.00;100741.00;5046567;28;20447;-66
2022/09/30 02:47:43;;;;;;;18.77;16.77;;;;;;;5.32;100.00;100745.19;5045106;28;20025;-66
2022/09/30 02:50:15;;;;;;;18.52;16.33;;;;;;;5.32;100.00;100748.78;5037613;28;20120;-65
2022/09/30 02:53:18;;;;;;;17.67;15.85;;;;;;;5.30;100.00;100750.84;5040599;28;20037;-65
2022/09/30 02:56:08;;;;;;;18.15;16.25;;;;;;;5.32;99.72;100751.50;5034614;28;20395;-65
2022/09/30 02:58:38;;;;;;;18.75;16.75;;;;;;;5.28;99.63;100741.22;5044635;28;20029;-66
2022/09/30 03:01:09;;;;;;;17.60;15.60;;;;;;;5.27;99.51;100750.41;5048986;28;20041;-65
2022/09/30 03:03:39;;;;;;;21.55;17.55;;;;;;;5.24;99.52;100751.66;5044172;28;20055;-66
2022/09/30 03:06:05;;;;;;;19.50;17.50;;;;;;;5.21;99.44;100752.03;5042913;28;20446;-65
2022/09/30 03:08:31;;;;;;;19.27;16.48;;;;;;;5.18;99.61;100747.84;5048257;28;20091;-65
2022/09/30 03:10:56;;;;;;;19.73;17.60;;;;;;;5.16;99.42;100749.91;5049918;28;20404;-65
2022/09/30 03:13:29;;;;;;;19.02;16.42;;;;;;;5.14;99.78;100752.00;5049281;28;20076;-65
2022/09/30 03:16:53;;;;;;;18.73;16.73;;;;;;;5.14;100.00;100756.59;5035711;28;20045;-65
2022/09/30 03:19:36;;;;;;;17.60;15.43;;;;;;;5.09;99.98;100749.03;4970740;28;20046;-67
2022/09/30 03:22:13;;;;;;;18.73;16.63;;;;;;;5.09;100.00;100753.63;5033146;28;20059;-65
2022/09/30 03:25:01;;;;;;;21.60;17.47;;;;;;;5.09;100.00;100757.19;5047879;28;20045;-65
2022/09/30 03:27:50;;;;;;;18.35;16.05;;;;;;;5.10;100.00;100764.31;5046971;28;20033;-65
2022/09/30 03:30:19;;;;;;;19.92;15.85;;;;;;;5.11;100.00;100762.41;5048877;28;20047;-65
2022/09/30 03:32:57;;;;;;;18.17;16.20;;;;;;;5.07;100.00;100764.72;5050232;28;20017;-65
2022/09/30 03:35:37;;;;;;;19.08;15.38;;;;;;;5.08;99.78;100771.00;5048509;28;20078;-65
2022/09/30 03:38:22;;;;;;;17.85;15.70;;;;;;;5.03;99.44;100766.16;5047947;28;20045;-65
2022/09/30 03:41:10;;;;;;;19.60;16.48;;;;;;;4.98;99.81;100760.44;5050332;28;20048;-65
2022/09/30 03:43:53;;;;;;;21.55;17.58;;;;;;;5.02;100.00;100764.47;5048896;28;20654;-65
2022/09/30 03:46:40;;;;;;;19.10;16.65;;;;;;;5.05;100.00;100774.94;5031615;28;20037;-66
2022/09/30 03:49:12;;;;;;;18.67;15.65;;;;;;;5.06;100.00;100775.78;5048601;28;20586;-65
2022/09/30 03:51:39;;;;;;;18.25;16.27;;;;;;;5.04;100.00;100776.00;5040679;28;20108;-65
2022/09/30 03:54:09;;;;;;;18.40;16.48;;;;;;;4.99;99.63;100774.91;5038605;28;20120;-65
2022/09/30 03:56:36;;;;;;;20.35;16.52;;;;;;;4.96;99.61;100770.66;5029573;28;20036;-65
2022/09/30 03:59:01;;;;;;;17.70;15.77;;;;;;;4.94;100.00;100773.59;5044207;28;20471;-65
2022/09/30 04:01:28;;;;;;;17.88;15.77;;;;;;;4.94;99.82;100780.91;5029397;28;20104;-65
2022/09/30 04:03:53;;;;;;;18.45;16.00;;;;;;;4.92;99.61;100788.44;5045256;28;20095;-65
2022/09/30 04:06:23;;;;;;;18.23;16.08;;;;;;;4.91;99.25;100793.03;5042928;28;20033;-66
2022/09/30 04:08:49;;;;;;;17.52;15.10;;;;;;;4.94;99.49;100797.25;5036340;28;20041;-66
2022/09/30 04:11:15;;;;;;;18.48;16.48;;;;;;;4.97;99.17;100804.16;5049552;28;20472;-65
2022/09/30 04:13:40;;;;;;;16.92;15.13;;;;;;;4.97;99.42;100807.75;5048671;28;20079;-65
2022/09/30 04:16:06;;;;;;;18.35;16.02;;;;;;;4.99;99.51;100815.72;5047644;28;20029;-65
2022/09/30 04:18:34;;;;;;;18.55;16.38;;;;;;;4.95;100.00;100823.44;5047820;28;20037;-65
2022/09/30 04:21:03;;;;;;;20.27;18.05;;;;;;;4.97;99.91;100834.09;5032897;28;20037;-65
2022/09/30 04:23:28;;;;;;;21.45;18.35;;;;;;;4.93;99.82;100841.84;5028569;28;20029;-65
2022/09/30 04:25:54;;;;;;;22.02;17.92;;;;;;;4.91;99.78;100838.44;5028720;28;20029;-65
2022/09/30 04:28:20;;;;;;;23.25;19.35;;;;;;;4.86;99.76;100852.63;5028733;28;20033;-66
2022/09/30 04:30:45;;;;;;;22.20;19.80;;;;;;;4.85;99.81;100841.94;5032068;28;20045;-65
2022/09/30 04:33:11;;;;;;;21.60;18.48;;;;;;;4.81;100.00;100851.53;5042504;28;20029;-65
2022/09/30 04:35:38;;;;;;;22.08;19.73;;;;;;;4.76;100.00;100834.94;5046588;28;20024;-65
2022/09/30 04:38:06;;;;;;;21.80;19.42;;;;;;;4.72;100.00;100830.94;5047189;28;20025;-65
2022/09/30 04:40:31;;;;;;;22.98;19.63;;;;;;;4.68;100.00;100831.31;5048652;28;20176;-65
2022/09/30 04:42:57;;;;;;;23.65;21.15;;;;;;;4.67;100.00;100832.38;5047668;28;20028;-65
2022/09/30 04:45:23;;;;;;;24.63;20.98;;;;;;;4.67;100.00;100834.25;5047900;28;20454;-65
2022/09/30 04:47:48;;;;;;;24.92;20.85;;;;;;;4.64;100.00;100832.72;5047653;28;20042;-67
2022/09/30 04:50:13;;;;;;;23.10;20.65;;;;;;;4.67;100.00;100839.69;5041390;28;20033;-66
2022/09/30 04:52:42;;;;;;;21.92;19.55;;;;;;;4.67;100.00;100847.84;5039204;28;20017;-65
2022/09/30 04:55:08;;;;;;;22.40;20.00;;;;;;;4.68;100.00;100847.66;5046566;28;20040;-65
2022/09/30 04:57:34;;;;;;;21.25;18.85;;;;;;;4.66;100.00;100847.00;5036848;28;20683;-65
2022/09/30 04:59:59;;;;;;;23.67;19.77;;;;;;;4.67;100.00;100848.69;5046162;28;20033;-65
2022/09/30 05:02:24;;;;;;;24.02;21.42;;;;;;;4.66;100.00;100857.00;5046631;28;20134;-65
2022/09/30 05:04:50;;;;;;;23.88;20.58;;;;;;;4.63;100.00;100863.69;5046348;28;20025;-66
2022/09/30 05:07:15;;;;;;;23.58;20.63;;;;;;;4.59;100.00;100862.38;5047126;28;20399;-66
2022/09/30 05:09:41;;;;;;;23.33;20.02;;;;;;;4.58;100.00;100859.88;5041243;28;20491;-66
2022/09/30 05:12:06;;;;;;;27.40;22.33;;;;;;;4.57;100.00;100864.47;5048922;28;20166;-66
2022/09/30 05:14:32;;;;;;;25.05;21.55;;;;;;;4.54;100.00;100862.13;5048126;28;20040;-65
2022/09/30 05:16:57;;;;;;;26.17;22.45;;;;;;;4.54;100.00;100866.72;5047641;28;20471;-66
2022/09/30 05:19:23;;;;;;;23.50;20.90;;;;;;;4.51;100.00;100865.25;5047274;28;20033;-66
2022/09/30 05:21:48;;;;;;;24.75;20.25;;;;;;;4.55;100.00;100866.53;5034006;28;20371;-67
2022/09/30 05:24:13;;;;;;;24.80;20.38;;;;;;;4.53;100.00;100865.88;5044840;28;20111;-65
2022/09/30 05:26:39;;;;;;;22.83;20.42;;;;;;;4.49;100.00;100867.28;5046388;28;20111;-65
2022/09/30 05:29:06;;;;;;;23.13;20.38;;;;;;;4.51;100.00;100864.38;5047661;28;20064;-66
2022/09/30 05:31:31;;;;;;;27.70;22.05;;;;;;;4.52;100.00;100869.63;5046364;28;20051;-66
2022/09/30 05:33:57;;;;;;;25.17;22.42;;;;;;;4.51;100.00;100873.41;5036081;28;20029;-66
2022/09/30 05:36:22;;;;;;;25.52;22.73;;;;;;;4.48;100.00;100876.50;5046507;28;20033;-65
2022/09/30 05:38:51;;;;;;;27.58;22.65;;;;;;;4.48;100.00;100881.09;5030233;28;20350;-66
2022/09/30 05:41:18;;;;;;;25.45;21.95;;;;;;;4.44;100.00;100877.91;5031901;28;20110;-66
2022/09/30 05:43:44;;;;;;;27.25;21.35;;;;;;;4.44;100.00;100888.78;5027579;28;20028;-65
2022/09/30 05:46:09;;;;;;;28.08;21.88;;;;;;;4.49;100.00;100893.66;5037431;28;20033;-66
2022/09/30 05:48:35;;;;;;;25.25;21.35;;;;;;;4.48;100.00;100906.41;5040653;28;20010;-66
2022/09/30 05:51:01;;;;;;;23.77;21.17;;;;;;;4.50;100.00;100908.91;5041116;28;20110;-66
2022/09/30 05:53:27;;;;;;;25.48;21.13;;;;;;;4.50;100.00;100915.19;5042932;28;20057;-66
2022/09/30 05:55:53;;;;;;;29.15;21.33;;;;;;;4.50;100.00;100915.19;5030657;28;20104;-66
2022/09/30 05:58:20;;;;;;;27.85;22.65;;;;;;;4.54;100.00;100916.50;5044466;28;20497;-66
2022/09/30 06:00:47;;;;;;;26.23;22.17;;;;;;;4.57;100.00;100920.75;5046986;28;20039;-65
2022/09/30 06:03:12;;;;;;;29.27;22.55;;;;;;;4.57;100.00;100916.16;5045307;28;20029;-66
2022/09/30 06:05:38;;;;;;;29.35;22.92;;;;;;;4.58;100.00;100925.16;5043777;28;20040;-65
2022/09/30 06:08:06;;;;;;;27.08;22.40;;;;;;;4.61;100.00;100928.34;5044295;28;20050;-66
2022/09/30 06:10:32;;;;;;;26.17;21.70;;;;;;;4.62;100.00;100926.47;5033490;28;20213;-66
2022/09/30 06:12:58;;;;;;;27.80;22.73;;;;;;;4.62;100.00;100927.31;5047343;28;20021;-66
2022/09/30 06:15:23;;;;;;;30.42;24.08;;;;;;;4.64;100.00;100924.38;5046366;28;20300;-66
2022/09/30 06:17:53;;;;;;;32.83;24.00;;;;;;;4.64;100.00;100924.38;5032577;28;20033;-67
2022/09/30 06:20:18;;;;;;;31.15;23.50;;;;;;;4.66;100.00;100923.19;5028372;28;20048;-67
2022/09/30 06:22:44;;;;;;;30.50;24.27;;;;;;;4.74;100.00;100929.53;5039820;28;20025;-66
2022/09/30 06:25:10;;;;;;;30.77;23.77;;;;;;;4.79;100.00;100930.63;5029370;28;20052;-66
2022/09/30 06:27:38;;;;;;;31.60;25.25;;;;;;;4.85;100.00;100943.47;5042290;28;20384;-66
2022/09/30 06:30:04;;;;;;;;;;;;;;;4.97;100.00;100946.56;5037097;28;20043;-66
2022/09/30 06:32:30;;;;;;;30.73;24.08;;;;;;;4.99;100.00;100944.47;5044963;28;20494;-66
2022/09/30 06:34:55;;;;;;;31.55;25.15;;;;;;;5.04;100.00;100941.19;5041993;28;20028;-66
2022/09/30 06:37:21;;;;;;;33.20;26.50;;;;;;;5.13;100.00;100946.31;5039999;28;20067;-67
2022/09/30 06:39:47;;;;;;;35.58;27.70;;;;;;;5.20;100.00;100943.66;5051518;28;20049;-66
2022/09/30 06:42:13;;;;;;;36.20;29.27;;;;;;;5.25;100.00;100937.63;5033809;28;20076;-66
2022/09/30 06:44:38;;;;;;;33.00;28.08;;;;;;;5.31;100.00;100939.59;5049568;28;20043;-66
2022/09/30 06:47:03;;;;;;;33.97;28.10;;;;;;;5.37;100.00;100936.06;5041696;28;20061;-66
2022/09/30 06:49:28;;;;;;;39.22;33.13;;;;;;;5.44;100.00;100932.41;5038818;28;20092;-66
2022/09/30 06:51:54;;;;;;;38.40;31.25;;;;;;;5.53;100.00;100935.00;5050061;28;20481;-66
2022/09/30 06:54:19;;;;;;;40.08;32.15;;;;;;;5.58;100.00;100938.81;5049901;28;20033;-67
2022/09/30 06:56:46;;;;;;;39.55;31.45;;;;;;;5.66;100.00;100937.81;5048573;28;20071;-66
2022/09/30 06:59:13;;;;;;;39.28;32.72;;;;;;;5.74;100.00;100929.53;5030799;28;20116;-66
2022/09/30 07:01:38;;;;;;;40.33;32.60;;;;;;;5.81;100.00;100932.28;5037558;28;20884;-66
2022/09/30 07:04:08;;;;;;;35.40;30.65;;;;;;;5.88;100.00;100931.31;5043163;28;20029;-67
2022/09/30 07:06:33;;;;;;;39.95;32.40;;;;;;;5.97;100.00;100940.19;5046137;28;20028;-66
2022/09/30 07:08:59;;;;;;;39.33;30.83;;;;;;;6.07;100.00;100945.31;5045212;28;20051;-66
2022/09/30 07:11:24;;;;;;;38.22;33.13;;;;;;;6.11;100.00;100941.97;5042395;28;20033;-66
2022/09/30 07:13:49;;;;;;;44.10;34.78;;;;;;;6.21;100.00;100953.38;5029950;28;20045;-67
2022/09/30 07:16:17;;;;;;;42.97;34.85;;;;;;;6.30;100.00;100934.97;5045593;28;20056;-66
2022/09/30 07:18:44;;;;;;;42.55;35.97;;;;;;;6.40;100.00;100934.63;5031120;28;20029;-66
2022/09/30 07:21:12;;;;;;;44.15;34.50;;;;;;;6.48;100.00;100934.44;5030421;28;21856;-66
2022/09/30 07:23:37;;;;;;;41.88;34.70;;;;;;;6.57;100.00;100940.56;5049030;28;20048;-66
2022/09/30 07:26:04;;;;;;;45.05;35.38;;;;;;;6.68;100.00;100940.84;5045415;28;20022;-66
2022/09/30 07:28:33;;;;;;;45.08;37.92;;;;;;;6.79;100.00;100935.84;5030954;28;20071;-66
2022/09/30 07:31:02;;;;;;;44.72;36.42;;;;;;;6.89;100.00;100942.59;5031007;28;20041;-66
2022/09/30 07:33:31;;;;;;;42.80;36.08;;;;;;;7.00;100.00;100941.19;5030251;28;20044;-66
2022/09/30 07:35:57;;;;;;;46.47;38.47;;;;;;;7.14;100.00;100939.31;5034656;28;20025;-66
2022/09/30 07:38:26;;;;;;;41.78;36.65;;;;;;;7.25;100.00;100936.84;5034963;28;20128;-66
2022/09/30 07:41:08;;;;;;;48.47;39.45;;;;;;;7.38;100.00;100938.75;5045015;28;20040;-66
2022/09/30 07:43:37;;;;;;;43.42;37.65;;;;;;;7.51;100.00;100941.53;5040721;28;20076;-66
2022/09/30 07:46:05;;;;;;;42.58;37.15;;;;;;;7.65;100.00;100947.81;5042112;28;20400;-66
2022/09/30 07:48:43;;;;;;;41.88;37.30;;;;;;;7.78;100.00;100952.47;5039356;28;20086;-66
2022/09/30 07:51:14;;;;;;;;;;;;;;;7.88;100.00;100941.94;5035551;28;20147;-66
2022/09/30 07:53:41;;;;;;;39.08;34.92;;;;;;;8.05;100.00;100940.44;5029363;28;19916;-67
2022/09/30 07:56:08;;;;;;;39.30;35.15;;;;;;;8.15;100.00;100931.81;5037482;28;20040;-69
2022/09/30 07:58:34;;;;;;;38.80;33.55;;;;;;;8.28;100.00;100934.53;5040381;28;20029;-68
2022/09/30 08:00:59;;;;;;;36.85;32.85;;;;;;;8.40;100.00;100936.66;5046016;28;20029;-67
2022/09/30 08:03:24;;;;;;;36.03;32.17;;;;;;;8.51;100.00;100938.72;5038775;28;20358;-67
2022/09/30 08:05:50;;;;;;;34.35;30.75;;;;;;;8.62;100.00;100938.06;5045111;28;20029;-67
2022/09/30 08:08:16;;;;;;;35.22;31.10;;;;;;;8.74;100.00;100924.53;5035923;28;20037;-66
2022/09/30 08:10:42;;;;;;;34.70;31.10;;;;;;;8.90;100.00;100928.69;5042505;28;20510;-66
2022/09/30 08:13:09;;;;;;;32.80;29.65;;;;;;;9.07;100.00;100935.34;5035446;28;20033;-67
2022/09/30 08:15:34;;;;;;;31.75;28.55;;;;;;;9.18;100.00;100929.19;5033798;28;20082;-66
2022/09/30 08:17:59;;;;;;;32.35;28.95;;;;;;;9.36;100.00;100931.16;5032488;28;20062;-63
2022/09/30 08:20:26;;;;;;;31.83;28.63;;;;;;;9.52;100.00;100929.78;5040534;28;20059;-63
2022/09/30 08:22:53;;;;;;;31.75;28.48;;;;;;;9.69;100.00;100939.19;5039105;28;20438;-63
2022/09/30 08:25:18;;;;;;;27.38;24.48;;;;;;;9.86;99.32;100933.97;5035702;28;20124;-64
2022/09/30 08:27:43;;;;;;;29.27;26.17;;;;;;;10.17;99.16;100938.53;5029706;28;20109;-63
2022/09/30 08:30:09;;;;;;;26.77;23.98;;;;;;;10.77;95.83;100930.53;5036703;28;20040;-63
2022/09/30 08:32:35;;;;;;;24.92;22.52;;;;;;;11.22;92.63;100935.66;5028088;28;20362;-64
2022/09/30 08:35:00;;;;;;;24.52;21.92;;;;;;;11.24;91.91;100925.25;5038587;28;20503;-66
2022/09/30 08:37:26;;;;;;;23.85;21.25;;;;;;;11.09;91.06;100939.41;5035974;28;20481;-65
2022/09/30 08:39:51;;;;;;;24.95;22.35;;;;;;;11.15;93.71;100932.13;5028951;28;20025;-65
2022/09/30 08:42:34;;;;;;;21.88;18.25;;;;;;;11.57;90.44;100927.53;5028392;28;20132;-65
2022/09/30 08:45:15;;;;;;;21.70;19.00;;;;;;;12.05;87.42;100937.53;5041083;28;20103;-65
2022/09/30 08:47:59;;;;;;;21.58;18.05;;;;;;;12.14;84.01;100935.28;5047205;28;20033;-65
2022/09/30 08:50:41;;;;;;;20.95;18.75;;;;;;;12.06;85.04;100943.88;5047640;28;20037;-66
2022/09/30 08:53:23;;;;;;;21.35;18.83;;;;;;;12.22;85.17;100948.72;5047893;28;20052;-64
2022/09/30 08:55:49;;;;;;;21.42;19.17;;;;;;;12.90;82.53;100948.00;5048751;28;20434;-65
2022/09/30 08:58:43;;;;;;;23.55;19.88;;;;;;;13.42;80.43;100938.84;5048995;28;20087;-64
2022/09/30 09:01:28;;;;;;;24.40;21.38;;;;;;;13.76;79.18;100937.81;5042624;28;20036;-64
2022/09/30 09:03:53;;;;;;;23.23;20.48;;;;;;;13.94;76.90;100946.97;5041421;28;20108;-63
2022/09/30 09:06:56;;;;;;;24.10;20.15;;;;;;;14.91;74.32;100940.97;5043518;28;20430;-66
2022/09/30 09:09:46;;;;;;;20.73;17.98;;;;;;;16.90;67.20;100926.09;5025671;28;20772;-64
2022/09/30 09:12:44;;;;;;;21.52;19.23;;;;;;;19.14;65.31;100925.22;5033196;28;20048;-64
2022/09/30 09:15:29;;;;;;;20.30;17.25;;;;;;;20.51;57.14;100934.53;5024112;28;20184;-65
2022/09/30 09:18:27;;;;;;;18.02;16.15;;;;;;;21.20;53.86;100943.50;5039551;28;20066;-66
2022/09/30 09:20:58;;;;;;;18.00;15.95;;;;;;;21.85;49.15;100934.47;5018010;28;20057;-66
2022/09/30 09:23:25;;;;;;;21.42;16.63;;;;;;;22.68;46.33;100933.56;5041985;28;20471;-65
2022/09/30 09:25:54;;;;;;;19.42;16.90;;;;;;;23.70;43.54;100928.59;5040213;28;20828;-65
2022/09/30 09:28:34;;;;;;;17.77;15.80;;;;;;;24.48;44.50;100939.56;5034400;28;20104;-66
2022/09/30 09:31:00;;;;;;;18.90;15.70;;;;;;;24.01;40.73;100953.09;5041597;28;20632;-64
2022/09/30 09:33:38;;;;;;;18.92;14.23;;;;;;;23.82;43.61;100956.06;5037746;28;20037;-65
2022/09/30 09:36:16;;;;;;;17.58;14.38;;;;;;;24.21;43.89;100952.56;5042442;28;20447;-64
2022/09/30 09:38:59;;;;;;;16.38;13.85;;;;;;;25.03;42.74;100947.56;5033280;28;20037;-64
2022/09/30 09:41:38;;;;;;;16.50;13.80;;;;;;;25.18;40.57;100943.50;5039303;28;20021;-64
2022/09/30 09:44:06;;;;;;;17.45;14.27;;;;;;;25.54;39.02;100943.22;5040059;28;20517;-64
2022/09/30 09:46:46;;;;;;;15.95;12.88;;;;;;;25.78;39.09;100952.03;5038799;28;20037;-64
2022/09/30 09:49:22;;;;;;;16.20;12.18;;;;;;;25.73;38.10;100948.53;5030400;28;20044;-64
2022/09/30 09:52:14;;;;;;;14.75;10.95;;;;;;;25.62;39.48;100951.69;5025771;28;20052;-64
2022/09/30 09:54:55;;;;;;;13.65;11.00;;;;;;;25.60;37.97;100927.88;5040128;28;20025;-64
2022/09/30 09:57:30;;;;;;;15.73;12.65;;;;;;;25.78;37.45;100932.34;5028093;28;20030;-63
2022/09/30 09:59:57;;;;;;;14.45;11.15;;;;;;;26.48;37.53;100926.66;5038007;28;20091;-64
2022/09/30 10:02:28;;;;;;;15.48;12.77;;;;;;;26.32;35.58;100929.97;5035693;28;20516;-63
2022/09/30 10:05:00;;;;;;;16.48;13.93;;;;;;;26.63;35.68;100923.28;5034078;28;20036;-64
2022/09/30 10:07:27;;;;;;;14.48;11.43;;;;;;;26.67;34.93;100929.06;5040340;28;20056;-63
2022/09/30 10:10:19;;;;;;;12.63;10.73;;;;;;;27.37;35.77;100928.38;5033066;28;20098;-63
2022/09/30 10:12:46;;;;;;;12.15;10.52;;;;;;;26.22;35.83;100930.31;5030959;28;20490;-63
2022/09/30 10:15:23;;;;;;;15.70;10.75;;;;;;;26.00;37.54;100933.31;5031544;28;20095;-63
2022/09/30 10:17:57;;;;;;;13.00;11.27;;;;;;;25.82;38.65;100933.34;5032217;28;20033;-65
2022/09/30 10:20:28;;;;;;;11.35;9.75;;;;;;;26.71;36.04;100933.66;5049460;28;20037;-64
2022/09/30 10:23:16;;;;;;;13.52;10.93;;;;;;;27.05;37.14;100943.13;5051009;28;20031;-63
2022/09/30 10:25:54;;;;;;;10.80;8.80;;;;;;;27.18;34.51;100939.28;5049989;28;20047;-63
2022/09/30 10:28:25;;;;;;;11.75;9.10;;;;;;;26.61;35.77;100942.50;5041959;28;20029;-64
2022/09/30 10:30:56;;;;;;;10.80;9.27;;;;;;;26.09;35.56;100936.97;5030827;28;20034;-64
2022/09/30 10:33:45;;;;;;;12.45;8.98;;;;;;;26.47;38.30;100934.28;5031108;28;20072;-64
2022/09/30 10:36:19;;;;;;;11.60;9.70;;;;;;;26.50;35.49;100933.59;5043328;28;20064;-64
2022/09/30 10:38:54;;;;;;;11.90;8.73;;;;;;;26.33;35.35;100934.44;5050749;28;20044;-63
2022/09/30 10:41:23;;;;;;;10.15;8.23;;;;;;;27.08;34.52;100934.88;5049729;28;20131;-64
2022/09/30 10:43:52;;;;;;;9.80;7.05;;;;;;;27.52;33.96;100940.22;5036462;28;20025;-65
2022/09/30 10:46:24;;;;;;;8.75;7.10;;;;;;;28.05;33.58;100933.00;5045417;28;20051;-63
2022/09/30 10:48:53;;;;;;;9.50;7.32;;;;;;;28.34;31.54;100935.72;5047934;28;20056;-64
2022/09/30 10:51:23;;;;;;;10.00;7.32;;;;;;;27.89;33.40;100933.63;5048581;28;20110;-64
2022/09/30 10:53:49;;;;;;;9.02;7.28;;;;;;;26.62;33.33;100932.91;5044151;28;20037;-64
2022/09/30 10:56:31;;;;;;;10.70;7.13;;;;;;;25.51;37.18;100938.28;5029601;28;20361;-63
2022/09/30 10:58:58;;;;;;;8.60;6.47;;;;;;;23.48;39.39;100945.38;5031641;28;20287;-63
2022/09/30 11:01:31;;;;;;;11.50;6.75;;;;;;;22.88;41.39;100940.75;5033189;28;20021;-63
2022/09/30 11:04:04;;;;;;;9.55;6.90;;;;;;;21.79;43.65;100949.66;5030518;28;20041;-63
2022/09/30 11:06:37;;;;;;;9.63;6.03;;;;;;;20.60;44.88;100934.72;5029750;28;20490;-64
2022/09/30 11:09:32;;;;;;;7.50;5.70;;;;;;;19.94;47.45;100925.00;5030396;28;20115;-64
2022/09/30 11:12:27;;;;;;;8.70;5.63;;;;;;;21.55;45.16;100925.44;5029873;28;20037;-65
2022/09/30 11:14:59;;;;;;;8.10;4.78;;;;;;;23.09;40.52;100935.56;5029657;28;20064;-64
2022/09/30 11:17:37;;;;;;;7.55;5.03;;;;;;;22.62;42.35;100928.38;5039107;28;20052;-63
2022/09/30 11:20:18;;;;;;;7.75;5.00;;;;;;;24.14;39.47;100917.72;5031004;28;20029;-64
2022/09/30 11:22:52;;;;;;;7.50;4.75;;;;;;;25.33;37.83;100920.53;5041498;28;20063;-64
2022/09/30 11:25:27;;;;;;;7.78;4.53;;;;;;;26.08;36.74;100912.78;5040557;28;20021;-64
2022/09/30 11:28:08;;;;;;;6.05;3.35;;;;;;;26.43;32.92;100924.00;5043904;28;20391;-64
2022/09/30 11:30:48;;;;;;;5.50;3.20;;;;;;;26.50;36.42;100913.88;5040312;28;20037;-65
2022/09/30 11:33:39;;;;;;;4.95;2.90;;;;;;;26.75;34.65;100903.66;5039539;28;23931;-63
2022/09/30 11:36:21;;;;;;;5.55;3.17;;;;;;;25.23;36.50;100910.44;5044100;28;20112;-64
2022/09/30 11:38:55;;;;;;;5.97;3.80;;;;;;;23.49;38.51;100908.59;5044465;28;20439;-63